Gibson, Iowa
Current Conditions -  °F | °C
As of 4:55 AM on Thursday 23 Oct 2014 (Local Time) from KOOA Reporting Station
Overcast Overcast  
Wind Chill: 50°   Ceiling: 7500
Heat Index: 50°   Visibility: 10mi
Dew Point: 42°   Wind: 7mph
Humidity: 75%   Direction: 170°S
Pressure: 30.1"   Gusts: NA
Location:  41.48°N, 92.39°W
Report Text: KOOA 230955Z AUTO 17006KT 10SM SCT070 BKN075 OVC100 10/06 A3010 RMK AO2 T01000057
Loading
Personal Weather Stations






























Interactive Weather Map
Tropical Storm Tracking
New forecast layout! Learn more

10-Day Weather Forecast

Advertisements
Track Severe Weather on mobile